sensor_id;sensor_type;location;lat;lon;timestamp;pressure;altitude;pressure_sealevel;temperature;humidity
61898;BME280;47850;50.274;18.908;2023-02-12T00:01:24;99326.89;;;2.66;100.00
61898;BME280;47850;50.274;18.908;2023-02-12T00:03:52;99329.95;;;2.66;100.00
61898;BME280;47850;50.274;18.908;2023-02-12T00:06:22;99334.01;;;2.66;100.00
61898;BME280;47850;50.274;18.908;2023-02-12T00:08:51;99342.15;;;2.67;100.00
61898;BME280;47850;50.274;18.908;2023-02-12T00:11:25;99342.05;;;2.68;100.00
61898;BME280;47850;50.274;18.908;2023-02-12T00:13:54;99341.02;;;2.67;100.00
61898;BME280;47850;50.274;18.908;2023-02-12T00:16:26;99341.56;;;2.67;100.00
61898;BME280;47850;50.274;18.908;2023-02-12T00:18:56;99335.85;;;2.67;100.00
61898;BME280;47850;50.274;18.908;2023-02-12T00:21:24;99337.62;;;2.66;100.00
61898;BME280;47850;50.274;18.908;2023-02-12T00:23:52;99336.44;;;2.67;100.00
61898;BME280;47850;50.274;18.908;2023-02-12T00:26:21;99334.94;;;2.67;100.00
61898;BME280;47850;50.274;18.908;2023-02-12T00:28:50;99341.94;;;2.67;100.00
61898;BME280;47850;50.274;18.908;2023-02-12T00:31:28;99350.09;;;2.68;100.00
61898;BME280;47850;50.274;18.908;2023-02-12T00:33:58;99352.09;;;2.68;100.00
61898;BME280;47850;50.274;18.908;2023-02-12T00:36:28;99352.94;;;2.68;100.00
61898;BME280;47850;50.274;18.908;2023-02-12T00:38:56;99351.42;;;2.68;100.00
61898;BME280;47850;50.274;18.908;2023-02-12T00:41:25;99350.70;;;2.66;100.00
61898;BME280;47850;50.274;18.908;2023-02-12T00:43:53;99348.23;;;2.66;100.00
61898;BME280;47850;50.274;18.908;2023-02-12T00:46:21;99347.10;;;2.67;100.00
61898;BME280;47850;50.274;18.908;2023-02-12T00:48:49;99348.67;;;2.67;100.00
61898;BME280;47850;50.274;18.908;2023-02-12T00:51:17;99352.88;;;2.67;100.00
61898;BME280;47850;50.274;18.908;2023-02-12T00:53:45;99352.86;;;2.66;100.00
61898;BME280;47850;50.274;18.908;2023-02-12T00:56:13;99355.93;;;2.66;100.00
61898;BME280;47850;50.274;18.908;2023-02-12T00:58:41;99359.70;;;2.66;100.00
61898;BME280;47850;50.274;18.908;2023-02-12T01:01:08;99364.91;;;2.66;100.00
61898;BME280;47850;50.274;18.908;2023-02-12T01:03:36;99367.42;;;2.65;100.00
61898;BME280;47850;50.274;18.908;2023-02-12T01:06:05;99368.64;;;2.64;100.00
61898;BME280;47850;50.274;18.908;2023-02-12T01:08:34;99366.40;;;2.63;100.00
61898;BME280;47850;50.274;18.908;2023-02-12T01:11:04;99364.67;;;2.62;100.00
61898;BME280;47850;50.274;18.908;2023-02-12T01:13:33;99363.14;;;2.60;100.00
61898;BME280;47850;50.274;18.908;2023-02-12T01:16:16;99370.06;;;2.60;100.00
61898;BME280;47850;50.274;18.908;2023-02-12T01:18:45;99373.83;;;2.60;100.00
61898;BME280;47850;50.274;18.908;2023-02-12T01:21:19;99373.71;;;2.59;100.00
61898;BME280;47850;50.274;18.908;2023-02-12T01:23:49;99376.42;;;2.60;100.00
61898;BME280;47850;50.274;18.908;2023-02-12T01:26:18;99378.89;;;2.60;100.00
61898;BME280;47850;50.274;18.908;2023-02-12T01:28:51;99383.34;;;2.61;100.00
61898;BME280;47850;50.274;18.908;2023-02-12T01:31:22;99382.65;;;2.61;100.00
61898;BME280;47850;50.274;18.908;2023-02-12T01:33:53;99389.01;;;2.61;100.00
61898;BME280;47850;50.274;18.908;2023-02-12T01:36:22;99384.70;;;2.62;100.00
61898;BME280;47850;50.274;18.908;2023-02-12T01:38:50;99388.44;;;2.60;100.00
61898;BME280;47850;50.274;18.908;2023-02-12T01:41:22;99395.05;;;2.60;100.00
61898;BME280;47850;50.274;18.908;2023-02-12T01:44:19;99395.66;;;2.60;100.00
61898;BME280;47850;50.274;18.908;2023-02-12T01:46:56;99395.29;;;2.60;100.00
61898;BME280;47850;50.274;18.908;2023-02-12T01:51:57;99402.00;;;2.62;100.00
61898;BME280;47850;50.274;18.908;2023-02-12T01:54:27;99403.23;;;2.61;100.00
61898;BME280;47850;50.274;18.908;2023-02-12T01:56:55;99405.28;;;2.62;100.00
61898;BME280;47850;50.274;18.908;2023-02-12T01:59:24;99411.09;;;2.61;100.00
61898;BME280;47850;50.274;18.908;2023-02-12T02:01:53;99418.41;;;2.62;100.00
61898;BME280;47850;50.274;18.908;2023-02-12T02:04:26;99417.45;;;2.62;100.00
61898;BME280;47850;50.274;18.908;2023-02-12T02:06:58;99413.63;;;2.61;100.00
61898;BME280;47850;50.274;18.908;2023-02-12T02:09:29;99419.31;;;2.61;100.00
61898;BME280;47850;50.274;18.908;2023-02-12T02:11:58;99418.09;;;2.59;100.00
61898;BME280;47850;50.274;18.908;2023-02-12T02:14:46;99418.87;;;2.58;100.00
61898;BME280;47850;50.274;18.908;2023-02-12T02:34:21;99432.98;;;2.56;100.00
61898;BME280;47850;50.274;18.908;2023-02-12T02:37:02;99433.77;;;2.56;100.00
61898;BME280;47850;50.274;18.908;2023-02-12T02:39:37;99436.36;;;2.57;100.00
61898;BME280;47850;50.274;18.908;2023-02-12T02:42:43;99447.36;;;2.58;100.00
61898;BME280;47850;50.274;18.908;2023-02-12T02:45:15;99461.80;;;2.59;100.00
61898;BME280;47850;50.274;18.908;2023-02-12T02:47:55;99467.10;;;2.59;100.00
61898;BME280;47850;50.274;18.908;2023-02-12T02:50:28;99473.73;;;2.59;100.00
61898;BME280;47850;50.274;18.908;2023-02-12T02:53:04;99470.20;;;2.60;100.00
61898;BME280;47850;50.274;18.908;2023-02-12T02:55:42;99461.14;;;2.59;100.00
61898;BME280;47850;50.274;18.908;2023-02-12T02:58:20;99459.77;;;2.59;100.00
61898;BME280;47850;50.274;18.908;2023-02-12T03:00:56;99463.70;;;2.59;100.00
61898;BME280;47850;50.274;18.908;2023-02-12T03:03:32;99472.70;;;2.59;100.00
61898;BME280;47850;50.274;18.908;2023-02-12T03:06:56;99476.78;;;2.58;100.00
61898;BME280;47850;50.274;18.908;2023-02-12T03:09:00;99481.24;;;2.58;100.00
61898;BME280;47850;50.274;18.908;2023-02-12T03:11:31;99480.92;;;2.58;100.00
61898;BME280;47850;50.274;18.908;2023-02-12T03:14:10;99485.28;;;2.58;100.00
61898;BME280;47850;50.274;18.908;2023-02-12T03:19:16;99494.17;;;2.58;100.00
61898;BME280;47850;50.274;18.908;2023-02-12T03:21:49;99505.96;;;2.58;100.00
61898;BME280;47850;50.274;18.908;2023-02-12T03:24:23;99511.06;;;2.57;100.00
61898;BME280;47850;50.274;18.908;2023-02-12T03:26:58;99517.15;;;2.57;100.00
61898;BME280;47850;50.274;18.908;2023-02-12T03:29:30;99520.36;;;2.56;100.00
61898;BME280;47850;50.274;18.908;2023-02-12T03:34:53;99526.41;;;2.57;100.00
61898;BME280;47850;50.274;18.908;2023-02-12T03:37:34;99523.60;;;2.56;100.00
61898;BME280;47850;50.274;18.908;2023-02-12T03:42:41;99546.09;;;2.55;100.00
61898;BME280;47850;50.274;18.908;2023-02-12T03:53:09;99560.20;;;2.55;100.00
61898;BME280;47850;50.274;18.908;2023-02-12T03:55:40;99557.83;;;2.55;100.00
61898;BME280;47850;50.274;18.908;2023-02-12T03:58:12;99563.75;;;2.55;100.00
61898;BME280;47850;50.274;18.908;2023-02-12T04:00:43;99572.00;;;2.55;100.00
61898;BME280;47850;50.274;18.908;2023-02-12T04:03:11;99570.63;;;2.55;100.00
61898;BME280;47850;50.274;18.908;2023-02-12T04:05:39;99577.29;;;2.54;100.00
61898;BME280;47850;50.274;18.908;2023-02-12T04:08:08;99577.16;;;2.53;100.00
61898;BME280;47850;50.274;18.908;2023-02-12T04:13:31;99590.15;;;2.51;100.00
61898;BME280;47850;50.274;18.908;2023-02-12T04:18:40;99594.81;;;2.50;100.00
61898;BME280;47850;50.274;18.908;2023-02-12T04:24:24;99597.94;;;2.48;100.00
61898;BME280;47850;50.274;18.908;2023-02-12T04:32:32;99608.67;;;2.47;100.00
61898;BME280;47850;50.274;18.908;2023-02-12T04:37:41;99611.30;;;2.46;100.00
61898;BME280;47850;50.274;18.908;2023-02-12T04:40:13;99619.20;;;2.46;100.00
61898;BME280;47850;50.274;18.908;2023-02-12T04:42:47;99617.23;;;2.44;100.00
61898;BME280;47850;50.274;18.908;2023-02-12T04:45:24;99616.99;;;2.44;100.00
61898;BME280;47850;50.274;18.908;2023-02-12T04:47:53;99615.94;;;2.42;100.00
61898;BME280;47850;50.274;18.908;2023-02-12T04:50:21;99622.41;;;2.43;100.00
61898;BME280;47850;50.274;18.908;2023-02-12T04:52:49;99625.89;;;2.42;100.00
61898;BME280;47850;50.274;18.908;2023-02-12T04:55:17;99630.39;;;2.41;100.00
61898;BME280;47850;50.274;18.908;2023-02-12T04:57:46;99629.77;;;2.40;100.00
61898;BME280;47850;50.274;18.908;2023-02-12T05:00:14;99637.02;;;2.39;100.00
61898;BME280;47850;50.274;18.908;2023-02-12T05:02:42;99648.05;;;2.38;100.00
61898;BME280;47850;50.274;18.908;2023-02-12T05:05:10;99654.02;;;2.38;100.00
61898;BME280;47850;50.274;18.908;2023-02-12T05:07:38;99655.21;;;2.39;100.00
61898;BME280;47850;50.274;18.908;2023-02-12T05:10:07;99658.00;;;2.38;100.00
61898;BME280;47850;50.274;18.908;2023-02-12T05:12:35;99656.51;;;2.38;100.00
61898;BME280;47850;50.274;18.908;2023-02-12T05:15:03;99656.71;;;2.38;100.00
61898;BME280;47850;50.274;18.908;2023-02-12T05:17:31;99655.80;;;2.38;100.00
61898;BME280;47850;50.274;18.908;2023-02-12T05:19:59;99658.61;;;2.39;100.00
61898;BME280;47850;50.274;18.908;2023-02-12T05:22:27;99667.32;;;2.38;100.00
61898;BME280;47850;50.274;18.908;2023-02-12T05:24:55;99671.66;;;2.38;100.00
61898;BME280;47850;50.274;18.908;2023-02-12T05:27:23;99675.20;;;2.37;100.00
61898;BME280;47850;50.274;18.908;2023-02-12T05:29:50;99679.45;;;2.37;100.00
61898;BME280;47850;50.274;18.908;2023-02-12T05:32:18;99683.77;;;2.37;100.00
61898;BME280;47850;50.274;18.908;2023-02-12T05:34:46;99686.06;;;2.37;100.00
61898;BME280;47850;50.274;18.908;2023-02-12T05:37:14;99684.99;;;2.36;100.00
61898;BME280;47850;50.274;18.908;2023-02-12T05:39:41;99688.85;;;2.36;100.00
61898;BME280;47850;50.274;18.908;2023-02-12T05:42:09;99692.34;;;2.35;100.00
61898;BME280;47850;50.274;18.908;2023-02-12T05:44:37;99698.52;;;2.35;100.00
61898;BME280;47850;50.274;18.908;2023-02-12T05:47:05;99698.90;;;2.33;100.00
61898;BME280;47850;50.274;18.908;2023-02-12T05:49:33;99703.89;;;2.33;100.00
61898;BME280;47850;50.274;18.908;2023-02-12T05:52:01;99709.89;;;2.32;100.00
61898;BME280;47850;50.274;18.908;2023-02-12T05:54:29;99712.39;;;2.31;100.00
61898;BME280;47850;50.274;18.908;2023-02-12T05:56:56;99715.77;;;2.30;100.00
61898;BME280;47850;50.274;18.908;2023-02-12T05:59:24;99721.15;;;2.30;100.00
61898;BME280;47850;50.274;18.908;2023-02-12T06:01:52;99721.20;;;2.30;100.00
61898;BME280;47850;50.274;18.908;2023-02-12T06:04:23;99726.48;;;2.29;100.00
61898;BME280;47850;50.274;18.908;2023-02-12T06:06:52;99733.67;;;2.29;100.00
61898;BME280;47850;50.274;18.908;2023-02-12T06:09:21;99737.15;;;2.29;100.00
61898;BME280;47850;50.274;18.908;2023-02-12T06:11:49;99743.54;;;2.28;100.00
61898;BME280;47850;50.274;18.908;2023-02-12T06:14:18;99752.25;;;2.27;100.00
61898;BME280;47850;50.274;18.908;2023-02-12T06:16:49;99759.94;;;2.25;99.97
61898;BME280;47850;50.274;18.908;2023-02-12T06:19:18;99764.11;;;2.22;99.71
61898;BME280;47850;50.274;18.908;2023-02-12T06:21:46;99767.14;;;2.21;99.56
61898;BME280;47850;50.274;18.908;2023-02-12T06:24:15;99770.59;;;2.19;99.21
61898;BME280;47850;50.274;18.908;2023-02-12T06:26:43;99773.66;;;2.19;99.09
61898;BME280;47850;50.274;18.908;2023-02-12T06:29:11;99778.44;;;2.18;98.86
61898;BME280;47850;50.274;18.908;2023-02-12T06:31:40;99778.45;;;2.17;98.68
61898;BME280;47850;50.274;18.908;2023-02-12T06:34:10;99783.84;;;2.16;98.48
61898;BME280;47850;50.274;18.908;2023-02-12T06:36:40;99788.55;;;2.13;98.22
61898;BME280;47850;50.274;18.908;2023-02-12T06:39:12;99797.85;;;2.11;97.73
61898;BME280;47850;50.274;18.908;2023-02-12T06:41:41;99799.79;;;2.07;97.41
61898;BME280;47850;50.274;18.908;2023-02-12T06:44:10;99797.98;;;2.02;97.08
61898;BME280;47850;50.274;18.908;2023-02-12T06:46:38;99798.47;;;1.95;96.77
61898;BME280;47850;50.274;18.908;2023-02-12T06:49:06;99796.79;;;1.88;96.53
61898;BME280;47850;50.274;18.908;2023-02-12T06:51:34;99800.34;;;1.81;96.33
61898;BME280;47850;50.274;18.908;2023-02-12T06:54:04;99803.15;;;1.72;96.29
61898;BME280;47850;50.274;18.908;2023-02-12T06:56:32;99805.58;;;1.64;96.24
61898;BME280;47850;50.274;18.908;2023-02-12T06:59:00;99812.89;;;1.56;96.22
61898;BME280;47850;50.274;18.908;2023-02-12T07:01:29;99818.45;;;1.50;96.27
61898;BME280;47850;50.274;18.908;2023-02-12T07:03:59;99823.95;;;1.45;96.32
61898;BME280;47850;50.274;18.908;2023-02-12T07:06:30;99821.94;;;1.41;96.36
61898;BME280;47850;50.274;18.908;2023-02-12T07:08:58;99822.75;;;1.38;96.55
61898;BME280;47850;50.274;18.908;2023-02-12T07:11:28;99826.03;;;1.35;96.53
61898;BME280;47850;50.274;18.908;2023-02-12T07:13:57;99824.13;;;1.32;96.59
61898;BME280;47850;50.274;18.908;2023-02-12T07:16:25;99824.89;;;1.28;96.43
61898;BME280;47850;50.274;18.908;2023-02-12T07:18:53;99832.42;;;1.27;96.46
61898;BME280;47850;50.274;18.908;2023-02-12T07:21:21;99840.16;;;1.25;96.23
61898;BME280;47850;50.274;18.908;2023-02-12T07:23:51;99845.98;;;1.22;95.98
61898;BME280;47850;50.274;18.908;2023-02-12T07:26:20;99848.20;;;1.18;95.54
61898;BME280;47850;50.274;18.908;2023-02-12T07:28:49;99851.93;;;1.13;95.03
61898;BME280;47850;50.274;18.908;2023-02-12T07:31:19;99850.02;;;1.08;94.41
61898;BME280;47850;50.274;18.908;2023-02-12T07:33:47;99853.66;;;1.01;93.81
61898;BME280;47850;50.274;18.908;2023-02-12T07:36:17;99858.81;;;0.97;93.13
61898;BME280;47850;50.274;18.908;2023-02-12T07:38:46;99864.57;;;0.92;92.90
61898;BME280;47850;50.274;18.908;2023-02-12T07:41:34;99864.83;;;0.91;92.59
61898;BME280;47850;50.274;18.908;2023-02-12T07:44:05;99868.46;;;0.90;92.40
61898;BME280;47850;50.274;18.908;2023-02-12T07:46:37;99871.27;;;0.91;92.21
61898;BME280;47850;50.274;18.908;2023-02-12T07:49:06;99875.91;;;0.89;91.71
61898;BME280;47850;50.274;18.908;2023-02-12T07:51:36;99880.50;;;0.90;91.56
61898;BME280;47850;50.274;18.908;2023-02-12T07:54:05;99891.70;;;0.89;91.07
61898;BME280;47850;50.274;18.908;2023-02-12T07:56:35;99892.37;;;0.89;90.90
61898;BME280;47850;50.274;18.908;2023-02-12T07:59:05;99892.58;;;0.87;90.56
61898;BME280;47850;50.274;18.908;2023-02-12T08:01:38;99891.87;;;0.87;90.64
61898;BME280;47850;50.274;18.908;2023-02-12T08:04:10;99894.58;;;0.91;90.63
61898;BME280;47850;50.274;18.908;2023-02-12T08:06:41;99893.31;;;1.00;90.53
61898;BME280;47850;50.274;18.908;2023-02-12T08:09:12;99892.38;;;1.10;90.09
61898;BME280;47850;50.274;18.908;2023-02-12T08:11:42;99901.70;;;1.23;90.11
61898;BME280;47850;50.274;18.908;2023-02-12T08:14:12;99903.52;;;1.34;89.63
61898;BME280;47850;50.274;18.908;2023-02-12T08:16:41;99910.17;;;1.36;88.99
61898;BME280;47850;50.274;18.908;2023-02-12T08:19:10;99911.27;;;1.34;88.47
61898;BME280;47850;50.274;18.908;2023-02-12T08:21:38;99913.69;;;1.31;88.18
61898;BME280;47850;50.274;18.908;2023-02-12T08:24:06;99920.30;;;1.31;88.32
61898;BME280;47850;50.274;18.908;2023-02-12T08:26:37;99921.44;;;1.34;88.22
61898;BME280;47850;50.274;18.908;2023-02-12T08:29:09;99925.65;;;1.36;87.52
61898;BME280;47850;50.274;18.908;2023-02-12T08:31:40;99926.04;;;1.40;87.41
61898;BME280;47850;50.274;18.908;2023-02-12T08:34:22;99930.25;;;1.42;86.71
61898;BME280;47850;50.274;18.908;2023-02-12T08:36:52;99930.11;;;1.44;86.68
61898;BME280;47850;50.274;18.908;2023-02-12T08:39:23;99931.83;;;1.48;86.48
61898;BME280;47850;50.274;18.908;2023-02-12T08:41:53;99927.32;;;1.55;86.43
61898;BME280;47850;50.274;18.908;2023-02-12T08:44:21;99928.52;;;1.69;86.20
61898;BME280;47850;50.274;18.908;2023-02-12T08:46:51;99935.23;;;1.78;84.34
61898;BME280;47850;50.274;18.908;2023-02-12T08:49:24;99937.81;;;1.88;83.96
61898;BME280;47850;50.274;18.908;2023-02-12T08:51:54;99941.94;;;1.96;82.98
61898;BME280;47850;50.274;18.908;2023-02-12T08:54:24;99947.71;;;2.03;82.72
61898;BME280;47850;50.274;18.908;2023-02-12T08:56:57;99953.27;;;2.08;82.18
61898;BME280;47850;50.274;18.908;2023-02-12T08:59:26;99954.56;;;2.15;82.12
61898;BME280;47850;50.274;18.908;2023-02-12T09:01:54;99953.42;;;2.18;81.43
61898;BME280;47850;50.274;18.908;2023-02-12T09:04:25;99958.30;;;2.26;81.63
61898;BME280;47850;50.274;18.908;2023-02-12T09:06:53;99960.80;;;2.33;81.46
61898;BME280;47850;50.274;18.908;2023-02-12T09:09:21;99963.43;;;2.36;80.79
61898;BME280;47850;50.274;18.908;2023-02-12T09:11:49;99960.20;;;2.36;81.02
61898;BME280;47850;50.274;18.908;2023-02-12T09:14:18;99962.17;;;2.41;81.47
61898;BME280;47850;50.274;18.908;2023-02-12T09:16:50;99967.36;;;2.45;80.77
61898;BME280;47850;50.274;18.908;2023-02-12T09:19:21;99970.21;;;2.47;80.50
61898;BME280;47850;50.274;18.908;2023-02-12T09:21:53;99973.19;;;2.47;80.11
61898;BME280;47850;50.274;18.908;2023-02-12T09:24:22;99976.98;;;2.45;79.52
61898;BME280;47850;50.274;18.908;2023-02-12T09:26:50;99981.10;;;2.42;79.41
61898;BME280;47850;50.274;18.908;2023-02-12T09:29:18;99979.66;;;2.45;79.56
61898;BME280;47850;50.274;18.908;2023-02-12T09:31:46;99980.24;;;2.50;79.18
61898;BME280;47850;50.274;18.908;2023-02-12T09:34:14;99981.27;;;2.56;79.10
61898;BME280;47850;50.274;18.908;2023-02-12T09:36:42;99985.37;;;2.64;78.99
61898;BME280;47850;50.274;18.908;2023-02-12T09:39:09;99986.58;;;2.73;78.51
61898;BME280;47850;50.274;18.908;2023-02-12T09:44:46;99987.24;;;2.84;77.59
61898;BME280;47850;50.274;18.908;2023-02-12T09:47:27;99987.77;;;2.85;77.91
61898;BME280;47850;50.274;18.908;2023-02-12T09:52:34;99994.50;;;2.75;78.02
61898;BME280;47850;50.274;18.908;2023-02-12T09:55:04;99998.30;;;2.68;78.08
61898;BME280;47850;50.274;18.908;2023-02-12T09:57:35;100000.03;;;2.62;77.82
61898;BME280;47850;50.274;18.908;2023-02-12T10:02:40;100000.21;;;2.59;78.04
61898;BME280;47850;50.274;18.908;2023-02-12T10:05:15;100002.98;;;2.56;77.50
61898;BME280;47850;50.274;18.908;2023-02-12T10:08:00;100001.16;;;2.51;77.59
61898;BME280;47850;50.274;18.908;2023-02-12T10:21:42;100007.48;;;2.70;76.78
61898;BME280;47850;50.274;18.908;2023-02-12T10:27:12;100009.17;;;2.86;77.07
61898;BME280;47850;50.274;18.908;2023-02-12T10:29:42;100008.52;;;2.99;77.02
61898;BME280;47850;50.274;18.908;2023-02-12T10:34:45;100015.70;;;3.34;76.44
61898;BME280;47850;50.274;18.908;2023-02-12T10:37:34;100010.20;;;3.50;75.79
61898;BME280;47850;50.274;18.908;2023-02-12T10:40:20;100010.83;;;3.69;75.55
61898;BME280;47850;50.274;18.908;2023-02-12T10:42:51;100018.66;;;3.90;74.94
61898;BME280;47850;50.274;18.908;2023-02-12T10:45:23;100019.94;;;4.08;74.31
61898;BME280;47850;50.274;18.908;2023-02-12T10:48:14;100016.70;;;4.19;73.88
61898;BME280;47850;50.274;18.908;2023-02-12T10:53:41;100020.28;;;4.37;73.19
61898;BME280;47850;50.274;18.908;2023-02-12T11:01:37;100018.23;;;4.89;71.80
61898;BME280;47850;50.274;18.908;2023-02-12T11:04:22;100016.83;;;5.04;71.84
61898;BME280;47850;50.274;18.908;2023-02-12T11:07:03;100010.40;;;5.22;70.81
61898;BME280;47850;50.274;18.908;2023-02-12T11:09:47;100019.52;;;5.37;70.55
61898;BME280;47850;50.274;18.908;2023-02-12T11:12:27;100027.23;;;5.33;68.94
61898;BME280;47850;50.274;18.908;2023-02-12T11:15:18;100022.93;;;5.13;68.97
61898;BME280;47850;50.274;18.908;2023-02-12T11:18:05;100020.63;;;5.07;70.43
61898;BME280;47850;50.274;18.908;2023-02-12T11:20:39;100022.15;;;4.95;69.01
61898;BME280;47850;50.274;18.908;2023-02-12T11:28:27;100013.73;;;4.81;69.71
61898;BME280;47850;50.274;18.908;2023-02-12T11:31:00;100016.25;;;4.97;69.67
61898;BME280;47850;50.274;18.908;2023-02-12T11:33:35;100011.75;;;5.38;69.61
61898;BME280;47850;50.274;18.908;2023-02-12T11:36:15;100018.73;;;5.69;68.05
61898;BME280;47850;50.274;18.908;2023-02-12T11:38:56;100013.89;;;6.05;66.32
61898;BME280;47850;50.274;18.908;2023-02-12T11:41:35;100011.14;;;6.00;67.52
61898;BME280;47850;50.274;18.908;2023-02-12T11:44:29;100012.60;;;6.18;67.19
61898;BME280;47850;50.274;18.908;2023-02-12T11:47:02;100013.56;;;6.33;66.32
61898;BME280;47850;50.274;18.908;2023-02-12T11:49:41;100013.08;;;6.30;65.68
61898;BME280;47850;50.274;18.908;2023-02-12T11:52:22;100014.69;;;6.13;66.24
61898;BME280;47850;50.274;18.908;2023-02-12T11:54:54;100016.22;;;5.81;66.56
61898;BME280;47850;50.274;18.908;2023-02-12T12:03:10;100014.02;;;4.96;68.66
61898;BME280;47850;50.274;18.908;2023-02-12T12:05:51;100015.00;;;4.83;69.49
61898;BME280;47850;50.274;18.908;2023-02-12T12:08:30;100017.64;;;4.75;69.47
61898;BME280;47850;50.274;18.908;2023-02-12T12:11:24;100017.88;;;4.64;69.48
61898;BME280;47850;50.274;18.908;2023-02-12T12:17:12;100017.29;;;4.52;70.26
61898;BME280;47850;50.274;18.908;2023-02-12T12:20:16;100010.86;;;4.46;70.86
61898;BME280;47850;50.274;18.908;2023-02-12T12:22:56;100012.61;;;4.42;70.85
61898;BME280;47850;50.274;18.908;2023-02-12T12:25:41;100014.58;;;4.38;71.29
61898;BME280;47850;50.274;18.908;2023-02-12T12:28:46;100015.16;;;4.38;71.54
61898;BME280;47850;50.274;18.908;2023-02-12T12:39:43;100016.49;;;4.24;72.30
61898;BME280;47850;50.274;18.908;2023-02-12T12:50:17;100017.89;;;4.14;73.14
61898;BME280;47850;50.274;18.908;2023-02-12T12:55:40;100025.44;;;4.08;73.46
61898;BME280;47850;50.274;18.908;2023-02-12T13:03:24;100032.45;;;3.85;74.09
61898;BME280;47850;50.274;18.908;2023-02-12T13:09:18;100026.95;;;3.89;74.36
61898;BME280;47850;50.274;18.908;2023-02-12T13:14:55;100024.34;;;4.03;74.28
61898;BME280;47850;50.274;18.908;2023-02-12T13:17:34;100022.84;;;4.12;74.20
61898;BME280;47850;50.274;18.908;2023-02-12T13:28:01;100022.91;;;4.71;73.38
61898;BME280;47850;50.274;18.908;2023-02-12T13:30:40;100018.42;;;5.33;72.99
61898;BME280;47850;50.274;18.908;2023-02-12T13:33:15;100023.70;;;5.94;71.25
61898;BME280;47850;50.274;18.908;2023-02-12T13:35:49;100025.54;;;6.34;70.63
61898;BME280;47850;50.274;18.908;2023-02-12T13:38:26;100030.25;;;6.71;69.46
61898;BME280;47850;50.274;18.908;2023-02-12T13:41:06;100022.27;;;7.22;69.00
61898;BME280;47850;50.274;18.908;2023-02-12T13:46:20;100021.48;;;8.58;65.44
61898;BME280;47850;50.274;18.908;2023-02-12T13:51:50;100027.66;;;8.71;65.23
61898;BME280;47850;50.274;18.908;2023-02-12T13:57:15;100029.23;;;9.09;63.12
61898;BME280;47850;50.274;18.908;2023-02-12T14:02:27;100032.83;;;10.97;60.47
61898;BME280;47850;50.274;18.908;2023-02-12T14:05:28;100036.08;;;11.12;58.34
61898;BME280;47850;50.274;18.908;2023-02-12T14:07:59;100035.38;;;11.02;56.72
61898;BME280;47850;50.274;18.908;2023-02-12T14:10:41;100032.45;;;10.94;56.08
61898;BME280;47850;50.274;18.908;2023-02-12T14:13:11;100034.02;;;11.00;55.59
61898;BME280;47850;50.274;18.908;2023-02-12T14:15:44;100034.33;;;11.30;55.26
61898;BME280;47850;50.274;18.908;2023-02-12T14:23:41;100028.47;;;11.91;53.18
61898;BME280;47850;50.274;18.908;2023-02-12T14:26:15;100035.64;;;12.03;53.39
61898;BME280;47850;50.274;18.908;2023-02-12T14:28:53;100044.91;;;12.06;52.24
61898;BME280;47850;50.274;18.908;2023-02-12T14:36:45;100038.98;;;9.43;54.74
61898;BME280;47850;50.274;18.908;2023-02-12T14:41:49;100032.09;;;8.18;57.82
61898;BME280;47850;50.274;18.908;2023-02-12T14:47:10;100029.13;;;7.72;60.00
61898;BME280;47850;50.274;18.908;2023-02-12T14:49:44;100028.89;;;7.46;60.78
61898;BME280;47850;50.274;18.908;2023-02-12T14:52:24;100029.55;;;7.48;61.51
61898;BME280;47850;50.274;18.908;2023-02-12T14:54:59;100036.34;;;8.02;60.76
61898;BME280;47850;50.274;18.908;2023-02-12T14:57:33;100033.69;;;8.10;59.85
61898;BME280;47850;50.274;18.908;2023-02-12T15:02:40;100040.73;;;8.65;59.83
61898;BME280;47850;50.274;18.908;2023-02-12T15:05:26;100039.75;;;8.73;58.86
61898;BME280;47850;50.274;18.908;2023-02-12T15:10:36;100043.25;;;8.26;59.93
61898;BME280;47850;50.274;18.908;2023-02-12T15:18:51;100047.71;;;6.89;62.64
61898;BME280;47850;50.274;18.908;2023-02-12T15:21:26;100045.50;;;6.53;64.14
61898;BME280;47850;50.274;18.908;2023-02-12T15:24:09;100047.91;;;6.29;65.16
61898;BME280;47850;50.274;18.908;2023-02-12T15:26:47;100045.46;;;6.10;66.02
61898;BME280;47850;50.274;18.908;2023-02-12T15:29:23;100043.64;;;5.94;66.73
61898;BME280;47850;50.274;18.908;2023-02-12T15:31:54;100038.71;;;5.75;67.33
61898;BME280;47850;50.274;18.908;2023-02-12T15:34:27;100040.91;;;5.54;68.00
61898;BME280;47850;50.274;18.908;2023-02-12T15:36:58;100049.67;;;5.33;68.70
61898;BME280;47850;50.274;18.908;2023-02-12T15:39:36;100053.61;;;5.14;69.48
61898;BME280;47850;50.274;18.908;2023-02-12T15:42:26;100047.05;;;4.96;70.17
61898;BME280;47850;50.274;18.908;2023-02-12T15:45:15;100046.70;;;4.76;70.96
61898;BME280;47850;50.274;18.908;2023-02-12T15:47:45;100047.60;;;4.57;71.59
61898;BME280;47850;50.274;18.908;2023-02-12T15:50:21;100047.67;;;4.40;72.25
61898;BME280;47850;50.274;18.908;2023-02-12T15:52:50;100047.64;;;4.23;72.87
61898;BME280;47850;50.274;18.908;2023-02-12T15:55:24;100047.06;;;4.05;73.33
61898;BME280;47850;50.274;18.908;2023-02-12T15:57:55;100046.92;;;3.83;73.82
61898;BME280;47850;50.274;18.908;2023-02-12T16:00:42;100047.59;;;3.64;74.60
61898;BME280;47850;50.274;18.908;2023-02-12T16:03:21;100046.35;;;3.46;75.50
61898;BME280;47850;50.274;18.908;2023-02-12T16:05:51;100047.92;;;3.29;76.00
61898;BME280;47850;50.274;18.908;2023-02-12T16:08:21;100047.59;;;3.14;76.67
61898;BME280;47850;50.274;18.908;2023-02-12T16:10:52;100046.23;;;3.00;77.36
61898;BME280;47850;50.274;18.908;2023-02-12T16:13:54;100043.67;;;2.87;77.93
61898;BME280;47850;50.274;18.908;2023-02-12T16:16:26;100047.48;;;2.74;78.81
61898;BME280;47850;50.274;18.908;2023-02-12T16:19:27;100046.83;;;2.65;79.37